Time;durP1;ratioP1;P1;durP2;ratioP2;P2;SDS_P1;SDS_P2;PMS_P1;PMS_P2;Temp;Humidity;BMP_temperature;BMP_pressure;BME280_temperature;BME280_humidity;BME280_pressure;Samples;Min_cycle;Max_cycle;Signal;HPM_P1;HPM_P2
2021/11/30 00:01:32;;;;;;;27.80;10.73;;;;;;;2.64;91.15;100953.84;5013496;28;20033;-70
2021/11/30 00:03:59;;;;;;;29.45;11.52;;;;;;;2.58;91.04;100952.50;5026674;28;20407;-70
2021/11/30 00:06:24;;;;;;;23.98;11.35;;;;;;;2.66;90.77;100944.31;5034610;28;20036;-70
2021/11/30 00:08:57;;;;;;;28.48;11.43;;;;;;;2.59;90.49;100938.75;5034895;28;20030;-70
2021/11/30 00:11:23;;;;;;;29.20;12.88;;;;;;;2.43;91.15;100936.41;5031678;28;20032;-70
2021/11/30 00:13:48;;;;;;;33.25;12.75;;;;;;;2.45;91.05;100934.56;5011723;28;20574;-70
2021/11/30 00:16:16;;;;;;;32.08;14.60;;;;;;;2.52;90.34;100927.28;5026032;28;20045;-70
2021/11/30 00:18:41;;;;;;;25.98;12.15;;;;;;;2.59;89.94;100922.59;5027305;28;20041;-70
2021/11/30 00:21:09;;;;;;;29.60;12.45;;;;;;;2.46;90.30;100928.50;5028039;28;20171;-70
2021/11/30 00:23:35;;;;;;;28.58;12.43;;;;;;;2.44;90.37;100929.53;5027110;28;20065;-70
2021/11/30 00:26:02;;;;;;;29.77;12.55;;;;;;;2.44;89.96;100932.91;5025623;28;20029;-70
2021/11/30 00:28:27;;;;;;;27.63;12.35;;;;;;;2.49;90.00;100933.44;5029664;28;20400;-70
2021/11/30 00:30:53;;;;;;;30.33;12.65;;;;;;;2.53;89.47;100934.84;5027244;28;20048;-70
2021/11/30 00:33:19;;;;;;;35.28;12.80;;;;;;;2.52;89.98;100935.78;5011429;28;20392;-70
2021/11/30 00:35:44;;;;;;;28.77;12.20;;;;;;;2.48;89.72;100933.53;5022701;28;20480;-70
2021/11/30 00:38:14;;;;;;;27.00;12.10;;;;;;;2.46;90.32;100927.69;5028402;28;20069;-70
2021/11/30 00:40:41;;;;;;;28.10;12.25;;;;;;;2.54;89.38;100935.66;5028342;28;20025;-70
2021/11/30 00:43:08;;;;;;;25.05;13.35;;;;;;;2.53;89.13;100924.63;5026143;28;20017;-70
2021/11/30 00:45:52;;;;;;;22.15;11.20;;;;;;;2.58;88.33;100932.00;5022769;28;20544;-70
2021/11/30 00:48:21;;;;;;;26.08;12.52;;;;;;;2.52;88.67;100929.84;5006652;28;20512;-70
2021/11/30 00:50:50;;;;;;;26.48;11.93;;;;;;;2.56;88.79;100927.91;5032703;28;20101;-70
2021/11/30 00:53:16;;;;;;;34.65;12.82;;;;;;;2.55;88.42;100921.97;5006766;28;20029;-70
2021/11/30 00:55:42;;;;;;;27.25;11.13;;;;;;;2.59;88.16;100922.59;5024091;28;20405;-70
2021/11/30 00:58:07;;;;;;;28.70;11.75;;;;;;;2.66;87.75;100905.91;5038014;28;20060;-70
2021/11/30 01:00:34;;;;;;;31.55;11.43;;;;;;;2.57;87.87;100893.72;5037159;28;20033;-70
2021/11/30 01:03:02;;;;;;;26.27;11.27;;;;;;;2.55;87.67;100905.78;5031037;28;20063;-70
2021/11/30 01:05:29;;;;;;;32.58;11.63;;;;;;;2.56;87.60;100904.84;5031301;28;20064;-70
2021/11/30 01:07:54;;;;;;;31.80;11.25;;;;;;;2.62;87.32;100899.31;5030793;28;20530;-70
2021/11/30 01:10:20;;;;;;;25.60;11.27;;;;;;;2.63;87.05;100903.53;5033341;28;20025;-70
2021/11/30 01:12:46;;;;;;;26.48;10.48;;;;;;;2.51;87.42;100889.81;5027338;28;20056;-70
2021/11/30 01:15:15;;;;;;;28.05;10.18;;;;;;;2.52;86.74;100894.00;5032054;28;20026;-70
2021/11/30 01:17:41;;;;;;;22.80;10.82;;;;;;;2.61;86.56;100883.16;5026894;28;20037;-70
2021/11/30 01:20:09;;;;;;;30.30;11.95;;;;;;;2.53;86.48;100878.53;5019452;28;20480;-70
2021/11/30 01:22:35;;;;;;;23.33;9.38;;;;;;;2.48;86.92;100864.41;5014158;28;20033;-70
2021/11/30 01:25:01;;;;;;;27.40;10.32;;;;;;;2.54;86.26;100866.53;5025324;28;20068;-70
2021/11/30 01:27:26;;;;;;;27.90;9.68;;;;;;;2.52;86.20;100860.72;5020293;28;20431;-70
2021/11/30 01:29:52;;;;;;;22.50;9.65;;;;;;;2.55;85.81;100872.50;5025654;28;20030;-70
2021/11/30 01:32:18;;;;;;;29.73;9.52;;;;;;;2.43;85.46;100864.72;5027631;28;20025;-70
2021/11/30 01:34:43;;;;;;;32.03;9.13;;;;;;;2.50;84.42;100860.81;5015044;28;20555;-70
2021/11/30 01:37:14;;;;;;;30.83;9.43;;;;;;;2.53;83.93;100859.81;5026103;28;20099;-70
2021/11/30 01:39:43;;;;;;;26.25;9.23;;;;;;;2.47;84.09;100850.78;5026962;28;20061;-70
2021/11/30 01:42:09;;;;;;;28.23;8.32;;;;;;;2.54;83.63;100853.75;5025808;28;20041;-70
2021/11/30 01:44:46;;;;;;;20.98;6.78;;;;;;;2.57;82.66;100851.00;5031268;28;20102;-70
2021/11/30 01:49:50;;;;;;;25.77;7.75;;;;;;;2.57;82.48;100853.56;5025897;28;20040;-70
2021/11/30 01:52:15;;;;;;;18.00;6.95;;;;;;;2.61;82.87;100861.84;5026150;28;20025;-70
2021/11/30 01:54:43;;;;;;;24.40;7.38;;;;;;;2.53;83.40;100854.69;5026046;28;20040;-70
2021/11/30 01:57:11;;;;;;;19.55;6.45;;;;;;;2.51;82.65;100838.63;5028319;28;20041;-70
2021/11/30 01:59:37;;;;;;;23.67;6.65;;;;;;;2.55;83.28;100841.78;5025782;28;20036;-70
2021/11/30 02:02:03;;;;;;;22.35;6.65;;;;;;;2.57;83.62;100832.25;5024261;28;20403;-70
2021/11/30 02:04:28;;;;;;;14.52;6.30;;;;;;;2.64;83.67;100823.25;5027024;28;20388;-70
2021/11/30 02:06:54;;;;;;;19.80;7.07;;;;;;;2.63;83.89;100819.84;5025961;28;20037;-70
2021/11/30 02:09:20;;;;;;;22.50;7.40;;;;;;;2.59;84.10;100815.06;5005991;28;20542;-70
2021/11/30 02:11:46;;;;;;;23.50;7.45;;;;;;;2.59;84.91;100803.06;5025730;28;20037;-70
2021/11/30 02:14:11;;;;;;;29.67;7.72;;;;;;;2.62;84.03;100813.09;5026969;28;20811;-70
2021/11/30 02:16:37;;;;;;;19.42;6.88;;;;;;;2.64;84.37;100813.00;5026485;28;20067;-70
2021/11/30 02:19:04;;;;;;;19.50;6.20;;;;;;;2.61;84.91;100798.66;5023732;28;20040;-71
2021/11/30 02:21:34;;;;;;;22.23;5.88;;;;;;;2.56;85.97;100805.00;5025774;28;20068;-70
2021/11/30 02:24:00;;;;;;;14.73;5.80;;;;;;;2.59;86.59;100795.38;5024851;28;20022;-70
2021/11/30 02:26:28;;;;;;;17.58;6.35;;;;;;;2.52;87.87;100786.47;5022539;28;20052;-70
2021/11/30 02:28:56;;;;;;;21.42;6.13;;;;;;;2.50;88.07;100775.53;5026446;28;20511;-70
2021/11/30 02:31:28;;;;;;;27.08;7.18;;;;;;;2.42;89.10;100765.81;5025374;28;20091;-71
2021/11/30 02:33:54;;;;;;;18.02;6.00;;;;;;;2.38;89.51;100756.69;5026954;28;20029;-70
2021/11/30 02:36:35;;;;;;;17.77;5.72;;;;;;;2.44;90.13;100747.78;5026217;28;20029;-71
2021/11/30 02:39:03;;;;;;;13.82;5.65;;;;;;;2.33;90.62;100739.09;5025117;28;20041;-71
2021/11/30 02:41:29;;;;;;;16.98;6.32;;;;;;;2.36;91.18;100738.06;5025234;28;20041;-70
2021/11/30 02:43:55;;;;;;;18.42;6.10;;;;;;;2.24;91.87;100726.09;5027935;28;20392;-71
2021/11/30 02:46:54;;;;;;;17.25;5.90;;;;;;;2.24;92.33;100719.25;5007157;28;20041;-71
2021/11/30 02:49:23;;;;;;;18.45;5.90;;;;;;;2.14;92.81;100719.03;4984089;28;20124;-71
2021/11/30 02:51:54;;;;;;;13.20;6.55;;;;;;;2.19;93.39;100705.16;5027077;28;20025;-71
2021/11/30 02:54:23;;;;;;;12.15;5.97;;;;;;;2.10;93.94;100699.72;5025125;28;20041;-71
2021/11/30 02:56:55;;;;;;;17.80;7.15;;;;;;;2.14;94.34;100696.00;5027052;28;20102;-71
2021/11/30 02:59:27;;;;;;;17.58;7.03;;;;;;;2.17;94.34;100681.38;5029188;28;20049;-71
2021/11/30 03:02:04;;;;;;;16.70;6.00;;;;;;;2.19;94.80;100682.94;5008291;28;20033;-71
2021/11/30 03:04:30;;;;;;;13.20;6.22;;;;;;;2.18;94.79;100663.38;5025788;28;20021;-71
2021/11/30 03:06:57;;;;;;;18.45;6.00;;;;;;;2.23;94.66;100651.09;5018594;28;20483;-71
2021/11/30 03:09:23;;;;;;;16.35;6.82;;;;;;;2.24;95.37;100662.13;5030685;28;20033;-71
2021/11/30 03:11:51;;;;;;;15.05;6.60;;;;;;;2.23;95.77;100625.50;5029697;28;20025;-70
2021/11/30 03:14:16;;;;;;;15.75;5.60;;;;;;;2.30;96.17;100639.50;5032178;28;21952;-72
2021/11/30 03:16:44;;;;;;;11.60;5.88;;;;;;;2.25;96.21;100631.31;5033268;28;20025;-72
2021/11/30 03:19:10;;;;;;;10.75;6.00;;;;;;;2.18;96.39;100630.09;5030323;28;20044;-72
2021/11/30 03:21:36;;;;;;;11.52;5.85;;;;;;;2.28;96.60;100623.44;5031041;28;20013;-72
2021/11/30 03:24:03;;;;;;;21.10;6.82;;;;;;;2.22;97.14;100612.81;5013424;28;20488;-72
2021/11/30 03:26:28;;;;;;;19.10;6.10;;;;;;;2.27;97.63;100613.31;5030304;28;20018;-72
2021/11/30 03:28:53;;;;;;;15.25;5.80;;;;;;;2.30;97.35;100608.00;5030170;28;20087;-71
2021/11/30 03:31:33;;;;;;;11.25;6.00;;;;;;;2.31;97.82;100600.19;5029164;28;20040;-72
2021/11/30 03:34:05;;;;;;;14.27;5.90;;;;;;;2.35;97.57;100595.66;5029405;28;20036;-71
2021/11/30 03:36:32;;;;;;;17.88;6.53;;;;;;;2.36;97.71;100587.09;5032804;28;20551;-71
2021/11/30 03:39:00;;;;;;;18.45;6.38;;;;;;;2.37;98.33;100588.69;5030199;28;20492;-71
2021/11/30 03:41:28;;;;;;;19.67;6.50;;;;;;;2.36;98.11;100578.59;5030511;28;20029;-71
2021/11/30 03:43:54;;;;;;;11.70;6.40;;;;;;;2.31;98.34;100587.38;5028618;28;20029;-71
2021/11/30 03:46:19;;;;;;;13.95;7.20;;;;;;;2.30;98.70;100597.75;5029472;28;20472;-71
2021/11/30 03:48:45;;;;;;;20.45;8.30;;;;;;;2.39;98.70;100573.25;5030285;28;20037;-71
2021/11/30 03:51:11;;;;;;;20.58;9.05;;;;;;;2.46;98.74;100574.44;5028434;28;20130;-71
2021/11/30 03:53:36;;;;;;;41.75;17.42;;;;;;;2.43;98.88;100569.53;5024490;28;20049;-71
2021/11/30 03:56:02;;;;;;;30.20;12.35;;;;;;;2.48;99.57;100559.78;5027592;28;20033;-71
2021/11/30 03:58:28;;;;;;;38.78;15.95;;;;;;;2.61;99.09;100562.31;5029045;28;20056;-71
2021/11/30 04:00:53;;;;;;;21.27;9.32;;;;;;;2.62;99.07;100549.41;5000297;28;20038;-71
2021/11/30 04:03:22;;;;;;;32.67;14.48;;;;;;;2.68;99.17;100545.56;5029657;28;20055;-71
2021/11/30 04:05:47;;;;;;;60.03;26.45;;;;;;;2.77;99.07;100556.88;5035345;28;20021;-72
2021/11/30 04:08:13;;;;;;;27.85;14.45;;;;;;;2.69;99.04;100542.06;5027592;28;20071;-72
2021/11/30 04:10:38;;;;;;;14.20;8.07;;;;;;;2.78;99.55;100546.53;5030155;28;20021;-72
2021/11/30 04:13:04;;;;;;;30.00;14.13;;;;;;;2.81;99.64;100548.06;5023484;28;20037;-71
2021/11/30 04:15:30;;;;;;;26.75;12.57;;;;;;;2.80;99.33;100536.97;5026837;28;20045;-71
2021/11/30 04:17:55;;;;;;;39.97;16.23;;;;;;;2.73;100.00;100535.78;5027892;28;20049;-71
2021/11/30 04:20:21;;;;;;;28.27;12.98;;;;;;;2.81;100.00;100525.81;5028325;28;20041;-72
2021/11/30 04:22:46;;;;;;;25.13;13.15;;;;;;;2.80;100.00;100531.84;5027476;28;20450;-71
2021/11/30 04:25:12;;;;;;;18.48;10.02;;;;;;;2.92;100.00;100525.03;5028444;28;20472;-71
2021/11/30 04:27:39;;;;;;;14.52;6.85;;;;;;;2.98;100.00;100521.22;5032113;28;20029;-71
2021/11/30 04:30:06;;;;;;;14.07;7.57;;;;;;;3.00;100.00;100515.03;5029584;28;20395;-71
2021/11/30 04:32:32;;;;;;;12.88;6.45;;;;;;;2.95;99.98;100513.75;5028598;28;20034;-72
2021/11/30 04:34:57;;;;;;;13.02;7.22;;;;;;;2.97;100.00;100515.25;5029968;28;20404;-71
2021/11/30 04:37:23;;;;;;;14.27;7.05;;;;;;;2.97;100.00;100509.31;5025544;28;20037;-71
2021/11/30 04:39:49;;;;;;;10.57;7.20;;;;;;;2.96;100.00;100505.94;5028336;28;20397;-71
2021/11/30 04:42:14;;;;;;;11.90;6.78;;;;;;;3.02;100.00;100510.63;5027454;28;20476;-71
2021/11/30 04:44:50;;;;;;;9.18;6.05;;;;;;;3.03;100.00;100496.06;5031915;28;20095;-71
2021/11/30 04:47:15;;;;;;;12.32;6.00;;;;;;;3.10;100.00;100495.47;5026218;28;20087;-71
2021/11/30 04:52:10;;;;;;;9.18;5.30;;;;;;;3.09;100.00;100500.75;5026599;28;20037;-72
2021/11/30 04:54:36;;;;;;;10.60;5.25;;;;;;;3.04;100.00;100495.94;5028045;28;20052;-71
2021/11/30 04:57:02;;;;;;;9.93;5.57;;;;;;;3.06;100.00;100493.28;5028156;28;20535;-71
2021/11/30 04:59:28;;;;;;;8.30;4.93;;;;;;;3.09;100.00;100487.94;5029569;28;20029;-71
2021/11/30 05:01:54;;;;;;;9.32;4.50;;;;;;;3.17;100.00;100482.22;5026724;28;20025;-71
2021/11/30 05:04:20;;;;;;;8.80;4.88;;;;;;;3.18;100.00;100483.84;5027724;28;20476;-72
2021/11/30 05:06:45;;;;;;;7.90;4.78;;;;;;;3.20;100.00;100475.13;5025553;28;20040;-71
2021/11/30 05:09:11;;;;;;;7.45;4.90;;;;;;;3.19;100.00;100473.47;5034329;28;20037;-71
2021/11/30 05:11:37;;;;;;;8.30;5.00;;;;;;;3.29;100.00;100474.41;5026220;28;20080;-71
2021/11/30 05:14:04;;;;;;;8.25;5.32;;;;;;;3.31;100.00;100474.28;5008522;28;20432;-71
2021/11/30 05:16:29;;;;;;;10.40;4.72;;;;;;;3.27;100.00;100465.22;5007318;28;20120;-71
2021/11/30 05:18:55;;;;;;;12.32;5.55;;;;;;;3.31;100.00;100464.03;5025176;28;20080;-71
2021/11/30 05:21:22;;;;;;;9.50;5.28;;;;;;;3.34;100.00;100466.38;5024966;28;20041;-71
2021/11/30 05:23:47;;;;;;;9.25;5.70;;;;;;;3.36;100.00;100469.63;5008398;28;20033;-71
2021/11/30 05:26:13;;;;;;;9.15;6.15;;;;;;;3.38;100.00;100461.84;5010676;28;20064;-75
2021/11/30 05:28:40;;;;;;;12.25;6.25;;;;;;;3.49;100.00;100464.38;5028251;28;20492;-71
2021/11/30 05:31:08;;;;;;;12.57;6.85;;;;;;;3.47;100.00;100448.31;5027346;28;20040;-72
2021/11/30 05:33:34;;;;;;;11.82;6.90;;;;;;;3.49;100.00;100449.00;5026508;28;20113;-71
2021/11/30 05:36:01;;;;;;;11.00;7.15;;;;;;;3.53;100.00;100447.84;5025636;28;20095;-72
2021/11/30 05:38:27;;;;;;;13.05;7.80;;;;;;;3.51;100.00;100447.94;5025659;28;20057;-71
2021/11/30 05:40:52;;;;;;;12.15;7.40;;;;;;;3.48;100.00;100447.38;5028107;28;20032;-72
2021/11/30 05:43:18;;;;;;;10.27;6.95;;;;;;;3.63;100.00;100437.66;5029106;28;20033;-71
2021/11/30 05:45:44;;;;;;;13.98;7.47;;;;;;;3.61;100.00;100437.78;5026794;28;20025;-72
2021/11/30 05:48:10;;;;;;;12.68;7.45;;;;;;;3.61;100.00;100435.22;5026577;28;20037;-72
2021/11/30 05:50:36;;;;;;;12.77;7.60;;;;;;;3.70;100.00;100443.94;5025310;28;20037;-72
2021/11/30 05:53:03;;;;;;;10.30;6.82;;;;;;;3.72;100.00;100444.66;5028594;28;20087;-72
2021/11/30 05:55:29;;;;;;;12.00;7.07;;;;;;;3.66;100.00;100442.56;5026992;28;20049;-72
2021/11/30 05:57:54;;;;;;;17.20;7.47;;;;;;;3.69;100.00;100439.75;5026659;28;22252;-72
2021/11/30 06:00:20;;;;;;;11.68;7.40;;;;;;;3.68;100.00;100446.63;5028515;28;20052;-72
2021/11/30 06:03:03;;;;;;;13.80;8.45;;;;;;;3.77;100.00;100439.97;5026240;28;20029;-71
2021/11/30 06:05:30;;;;;;;17.10;8.38;;;;;;;3.67;100.00;100449.31;5023691;28;20192;-71
2021/11/30 06:07:56;;;;;;;13.10;8.43;;;;;;;3.79;100.00;100445.00;5026474;28;20144;-71
2021/11/30 06:10:22;;;;;;;13.18;8.90;;;;;;;3.83;100.00;100444.63;5011570;28;20041;-71
2021/11/30 06:12:48;;;;;;;17.58;9.45;;;;;;;3.93;100.00;100444.69;5028525;28;20396;-71
2021/11/30 06:15:14;;;;;;;16.15;9.32;;;;;;;3.97;100.00;100446.09;5027513;28;20064;-71
2021/11/30 06:17:40;;;;;;;15.52;9.23;;;;;;;3.92;100.00;100443.09;5033800;28;20443;-72
2021/11/30 06:20:07;;;;;;;20.05;11.93;;;;;;;3.95;100.00;100447.16;5024360;28;20040;-71
2021/11/30 06:22:33;;;;;;;18.77;11.73;;;;;;;4.02;100.00;100445.72;5027032;28;20136;-72
2021/11/30 06:24:59;;;;;;;18.80;11.30;;;;;;;4.04;100.00;100449.81;5027218;28;20112;-72
2021/11/30 06:27:24;;;;;;;22.60;12.25;;;;;;;4.10;100.00;100449.31;5029787;28;20057;-72
2021/11/30 06:29:50;;;;;;;22.33;12.32;;;;;;;4.15;100.00;100443.81;5028163;28;20531;-71
2021/11/30 06:32:16;;;;;;;19.77;11.50;;;;;;;4.16;100.00;100447.19;5027929;28;20173;-72
2021/11/30 06:34:41;;;;;;;20.85;13.27;;;;;;;4.16;100.00;100452.31;5024188;28;20510;-72
2021/11/30 06:37:08;;;;;;;24.20;14.25;;;;;;;4.31;100.00;100450.28;5024373;28;20465;-72
2021/11/30 06:39:35;;;;;;;25.02;13.95;;;;;;;4.33;100.00;100450.97;5025702;28;20083;-72
2021/11/30 06:42:01;;;;;;;26.05;15.00;;;;;;;4.34;100.00;100447.47;5008726;28;20030;-72
2021/11/30 06:44:26;;;;;;;22.98;13.18;;;;;;;4.34;100.00;100448.28;5021909;28;20870;-72
2021/11/30 06:46:52;;;;;;;20.00;12.77;;;;;;;4.46;100.00;100449.88;5013041;28;20713;-72
2021/11/30 06:49:18;;;;;;;19.50;13.27;;;;;;;4.43;100.00;100452.69;5011135;28;20044;-72
2021/11/30 06:51:44;;;;;;;20.42;12.95;;;;;;;4.48;100.00;100458.25;5026603;28;20029;-72
2021/11/30 06:54:09;;;;;;;24.70;13.80;;;;;;;4.43;100.00;100447.53;5033152;28;20447;-72
2021/11/30 06:56:35;;;;;;;26.80;14.95;;;;;;;4.52;100.00;100458.00;5026096;28;20507;-72
2021/11/30 06:59:01;;;;;;;27.48;15.18;;;;;;;4.56;100.00;100443.97;5028831;28;20056;-72
2021/11/30 07:01:28;;;;;;;24.48;14.07;;;;;;;4.56;100.00;100452.50;5013684;28;20197;-72
2021/11/30 07:03:54;;;;;;;26.33;14.43;;;;;;;4.71;100.00;100431.63;5030246;28;20041;-72
2021/11/30 07:06:26;;;;;;;21.77;13.93;;;;;;;4.68;100.00;100436.06;5035461;28;20040;-73
2021/11/30 07:08:55;;;;;;;23.45;12.38;;;;;;;4.71;100.00;100441.88;5025758;28;20179;-73
2021/11/30 07:11:47;;;;;;;23.30;12.63;;;;;;;4.76;100.00;100435.44;5013003;28;20082;-72
2021/11/30 07:14:13;;;;;;;17.58;11.32;;;;;;;4.81;100.00;100438.44;5029661;28;20107;-73
2021/11/30 07:16:39;;;;;;;17.27;10.85;;;;;;;4.90;100.00;100423.19;5026898;28;20076;-73
2021/11/30 07:19:05;;;;;;;20.08;11.23;;;;;;;4.78;100.00;100423.28;5031022;28;20561;-73
2021/11/30 07:21:32;;;;;;;16.08;9.85;;;;;;;4.88;100.00;100425.91;5028986;28;20052;-72
2021/11/30 07:23:58;;;;;;;15.95;9.65;;;;;;;4.87;100.00;100416.56;5026229;28;20034;-72
2021/11/30 07:26:25;;;;;;;16.17;9.32;;;;;;;4.95;100.00;100418.50;5023603;28;20037;-72
2021/11/30 07:28:51;;;;;;;15.23;9.65;;;;;;;4.98;100.00;100418.25;5023916;28;20118;-72
2021/11/30 07:31:17;;;;;;;19.85;9.82;;;;;;;4.96;100.00;100415.00;5027721;28;20033;-72
2021/11/30 07:33:46;;;;;;;15.27;9.18;;;;;;;4.95;100.00;100415.91;5027623;28;20030;-72
2021/11/30 07:36:14;;;;;;;16.85;9.40;;;;;;;5.02;100.00;100406.75;5023850;28;20399;-72
2021/11/30 07:38:41;;;;;;;15.52;9.85;;;;;;;5.07;100.00;100404.63;5022193;28;20030;-72
2021/11/30 07:41:08;;;;;;;14.07;9.32;;;;;;;4.98;100.00;100416.47;5025657;28;20043;-72
2021/11/30 07:43:34;;;;;;;14.10;9.25;;;;;;;5.03;100.00;100416.09;5026231;28;20116;-72
2021/11/30 07:46:00;;;;;;;14.13;9.35;;;;;;;5.12;100.00;100404.22;5025236;28;20057;-72
2021/11/30 07:48:27;;;;;;;15.07;9.32;;;;;;;5.21;100.00;100401.69;5027686;28;20053;-71
2021/11/30 07:50:53;;;;;;;14.88;9.63;;;;;;;5.20;100.00;100410.34;5024926;28;20053;-72
2021/11/30 07:53:19;;;;;;;15.50;9.13;;;;;;;5.21;100.00;100414.53;5011458;28;20037;-72
2021/11/30 07:55:44;;;;;;;17.58;9.25;;;;;;;5.23;100.00;100414.41;5025569;28;20029;-72
2021/11/30 07:58:10;;;;;;;13.35;9.05;;;;;;;5.21;100.00;100413.72;5013367;28;20029;-72
2021/11/30 08:00:36;;;;;;;14.32;9.43;;;;;;;5.28;100.00;100419.97;5027430;28;20408;-72
2021/11/30 08:03:02;;;;;;;15.45;9.65;;;;;;;5.27;100.00;100423.47;5016308;28;20427;-72
2021/11/30 08:05:28;;;;;;;17.13;8.38;;;;;;;5.24;100.00;100422.00;5034092;28;20025;-72
2021/11/30 08:07:53;;;;;;;15.27;8.18;;;;;;;5.22;100.00;100431.59;5035776;28;20076;-72
2021/11/30 08:10:21;;;;;;;13.73;9.23;;;;;;;5.31;100.00;100424.84;5032765;28;20098;-72
2021/11/30 08:12:46;;;;;;;11.40;8.57;;;;;;;5.33;100.00;100435.00;5034823;28;20162;-72
2021/11/30 08:15:14;;;;;;;12.38;8.80;;;;;;;5.30;100.00;100443.00;5034006;28;20060;-73
2021/11/30 08:17:40;;;;;;;12.45;8.50;;;;;;;5.32;100.00;100423.91;5033198;28;20032;-72
2021/11/30 08:20:06;;;;;;;13.80;8.85;;;;;;;5.36;100.00;100439.88;5034848;28;20037;-72
2021/11/30 08:22:32;;;;;;;13.48;8.23;;;;;;;5.34;100.00;100423.78;5030105;28;20053;-72
2021/11/30 08:24:57;;;;;;;11.93;8.02;;;;;;;5.34;100.00;100432.28;5033231;28;20502;-72
2021/11/30 08:27:23;;;;;;;12.02;7.97;;;;;;;5.39;100.00;100425.00;5028230;28;20108;-73
2021/11/30 08:29:50;;;;;;;14.88;7.45;;;;;;;5.46;100.00;100435.56;5022443;28;20029;-72
2021/11/30 08:32:20;;;;;;;12.77;7.20;;;;;;;5.48;100.00;100441.41;5035123;28;20055;-72
2021/11/30 08:34:46;;;;;;;11.43;6.82;;;;;;;5.51;100.00;100430.84;5040001;28;20034;-72
2021/11/30 08:37:11;;;;;;;11.50;7.43;;;;;;;5.58;100.00;100428.59;5014086;28;20762;-73
2021/11/30 08:39:38;;;;;;;12.75;7.22;;;;;;;5.58;100.00;100434.53;5032174;28;20133;-73
2021/11/30 08:42:06;;;;;;;12.45;6.55;;;;;;;5.64;100.00;100428.84;5027911;28;20318;-73
2021/11/30 08:44:32;;;;;;;12.85;6.85;;;;;;;5.61;100.00;100428.31;5028966;28;20028;-73
2021/11/30 08:46:58;;;;;;;9.07;5.85;;;;;;;5.69;100.00;100425.06;5015348;28;20079;-73
2021/11/30 08:49:25;;;;;;;9.25;6.28;;;;;;;5.59;100.00;100420.72;5036642;28;20045;-73
2021/11/30 08:51:52;;;;;;;10.68;6.72;;;;;;;5.65;100.00;100427.91;5029817;28;20032;-73
2021/11/30 08:54:18;;;;;;;9.18;6.28;;;;;;;5.74;100.00;100417.75;5026621;28;20538;-73
2021/11/30 08:56:43;;;;;;;10.43;6.75;;;;;;;5.79;100.00;100413.84;5027516;28;20311;-73
2021/11/30 08:59:11;;;;;;;8.40;6.22;;;;;;;5.87;100.00;100425.22;5029275;28;20044;-73
2021/11/30 09:01:38;;;;;;;11.00;6.90;;;;;;;5.85;100.00;100420.22;5002433;28;20389;-73
2021/11/30 09:04:04;;;;;;;11.07;7.18;;;;;;;5.87;100.00;100422.66;5008189;28;20043;-73
2021/11/30 09:06:29;;;;;;;11.57;7.53;;;;;;;5.90;100.00;100412.91;5029969;28;20028;-73
2021/11/30 09:08:55;;;;;;;13.07;7.50;;;;;;;6.00;100.00;100405.22;5026817;28;20034;-73
2021/11/30 09:11:22;;;;;;;10.75;7.20;;;;;;;6.00;100.00;100397.50;5019441;28;20086;-73
2021/11/30 09:13:48;;;;;;;11.07;7.28;;;;;;;5.99;100.00;100401.84;5027443;28;20037;-73
2021/11/30 09:16:14;;;;;;;12.90;7.50;;;;;;;5.96;100.00;100404.66;5030146;28;20040;-73
2021/11/30 09:18:40;;;;;;;10.77;7.75;;;;;;;5.97;100.00;100403.75;5006089;28;20030;-73
2021/11/30 09:21:05;;;;;;;10.25;7.63;;;;;;;6.11;100.00;100419.72;5020619;28;20043;-72
2021/11/30 09:23:31;;;;;;;11.25;6.93;;;;;;;6.16;100.00;100396.94;5033422;28;20018;-73
2021/11/30 09:25:57;;;;;;;13.05;7.95;;;;;;;6.20;100.00;100411.19;5033090;28;20396;-73
2021/11/30 09:28:24;;;;;;;13.07;8.88;;;;;;;6.26;100.00;100415.78;5028326;28;20116;-73
2021/11/30 09:30:50;;;;;;;12.25;9.00;;;;;;;6.24;100.00;100397.06;5026654;28;20048;-73
2021/11/30 09:33:16;;;;;;;14.50;8.65;;;;;;;6.30;100.00;100403.44;5019089;28;20480;-72
2021/11/30 09:35:41;;;;;;;13.18;8.35;;;;;;;6.32;100.00;100396.38;5036236;28;20488;-72
2021/11/30 09:38:08;;;;;;;11.68;8.25;;;;;;;6.35;100.00;100396.94;5033535;28;20037;-73
2021/11/30 09:40:35;;;;;;;11.85;8.20;;;;;;;6.30;100.00;100393.13;5024443;28;20021;-72
2021/11/30 09:43:00;;;;;;;11.55;7.88;;;;;;;6.41;100.00;100391.22;5032559;28;20060;-72
2021/11/30 09:45:27;;;;;;;13.07;8.20;;;;;;;6.37;100.00;100397.59;5028574;28;20060;-72
2021/11/30 09:47:54;;;;;;;11.93;8.05;;;;;;;6.35;100.00;100386.63;5024705;28;20030;-72
2021/11/30 09:50:22;;;;;;;14.80;8.30;;;;;;;6.43;100.00;100394.47;5022171;28;20029;-72
2021/11/30 09:52:53;;;;;;;13.52;8.85;;;;;;;6.49;100.00;100381.97;5026658;28;20108;-72
2021/11/30 09:55:22;;;;;;;13.55;9.48;;;;;;;6.44;100.00;100405.56;5021383;28;20068;-72
2021/11/30 09:57:48;;;;;;;14.48;9.85;;;;;;;6.51;100.00;100386.03;5030545;28;20037;-72
2021/11/30 10:00:14;;;;;;;13.48;9.60;;;;;;;6.55;100.00;100381.41;5030121;28;20043;-72
2021/11/30 10:02:39;;;;;;;15.65;11.05;;;;;;;6.58;100.00;100384.53;5033455;28;20037;-72
2021/11/30 10:05:05;;;;;;;17.77;10.63;;;;;;;6.49;100.00;100394.88;5027364;28;20025;-72
2021/11/30 10:07:44;;;;;;;14.23;10.55;;;;;;;6.60;100.00;100397.28;5029361;28;20034;-73
2021/11/30 10:10:19;;;;;;;17.92;11.27;;;;;;;6.61;100.00;100393.72;5017243;28;20035;-71
2021/11/30 10:12:54;;;;;;;18.23;12.23;;;;;;;6.68;100.00;100394.00;5028135;28;20071;-72
2021/11/30 10:15:19;;;;;;;17.00;12.00;;;;;;;6.63;100.00;100394.44;5025254;28;20033;-72
2021/11/30 10:17:45;;;;;;;18.25;12.05;;;;;;;6.66;100.00;100393.31;5034649;28;20411;-72
2021/11/30 10:20:13;;;;;;;16.90;12.40;;;;;;;6.62;100.00;100397.94;5029224;28;20033;-73
2021/11/30 10:22:52;;;;;;;16.92;12.63;;;;;;;6.69;100.00;100395.63;5034499;28;20510;-72
2021/11/30 10:25:38;;;;;;;19.77;13.18;;;;;;;6.69;100.00;100395.63;5012466;28;20091;-72
2021/11/30 10:28:07;;;;;;;18.48;13.02;;;;;;;6.75;100.00;100408.75;5013562;28;20045;-72
2021/11/30 10:30:36;;;;;;;18.10;12.32;;;;;;;6.72;100.00;100403.88;5017031;28;20143;-73
2021/11/30 10:33:15;;;;;;;16.90;12.35;;;;;;;6.74;100.00;100409.72;5037746;28;20116;-73
2021/11/30 10:35:42;;;;;;;17.15;12.80;;;;;;;6.77;100.00;100406.03;5031213;28;20412;-73
2021/11/30 10:38:07;;;;;;;17.33;11.40;;;;;;;6.85;100.00;100408.72;5027555;28;20032;-73
2021/11/30 10:40:37;;;;;;;15.98;10.52;;;;;;;6.85;100.00;100408.72;5031306;28;20232;-73
2021/11/30 10:43:09;;;;;;;15.10;10.43;;;;;;;6.84;100.00;100407.13;5029929;28;20044;-73
2021/11/30 10:45:34;;;;;;;13.98;10.20;;;;;;;6.87;100.00;100413.75;5008523;28;20437;-73
2021/11/30 10:48:22;;;;;;;12.85;8.13;;;;;;;6.91;100.00;100407.34;5019148;28;20320;-74
2021/11/30 10:50:54;;;;;;;12.23;8.20;;;;;;;6.90;100.00;100410.88;5031457;28;20490;-74
2021/11/30 10:53:26;;;;;;;12.67;8.40;;;;;;;7.01;100.00;100401.19;5032485;28;20056;-73
2021/11/30 10:55:54;;;;;;;10.40;7.27;;;;;;;7.06;100.00;100408.50;5026034;28;20029;-73
2021/11/30 10:58:25;;;;;;;10.35;7.47;;;;;;;7.07;100.00;100402.41;5028092;28;20033;-73
2021/11/30 11:00:52;;;;;;;10.18;7.43;;;;;;;7.07;100.00;100404.19;5024214;28;20060;-73
2021/11/30 11:03:21;;;;;;;11.38;8.35;;;;;;;6.99;100.00;100392.81;5032935;28;20758;-74
2021/11/30 11:06:24;;;;;;;11.05;8.13;;;;;;;7.03;100.00;100393.34;5022693;28;20495;-73
2021/11/30 11:08:47;;;;;;;14.00;9.10;;;;;;;7.10;100.00;100383.25;5035612;28;20514;-74
2021/11/30 11:11:18;;;;;;;15.55;8.57;;;;;;;7.09;100.00;100395.34;5029772;28;20119;-73
2021/11/30 11:13:44;;;;;;;12.13;7.50;;;;;;;7.20;100.00;100391.75;5025117;28;20033;-73
2021/11/30 11:16:32;;;;;;;8.77;6.80;;;;;;;7.18;100.00;100406.56;5029138;28;20056;-73
2021/11/30 11:19:00;;;;;;;9.88;6.90;;;;;;;7.22;100.00;100395.81;5024076;28;20080;-73
2021/11/30 11:21:27;;;;;;;13.13;8.82;;;;;;;7.17;100.00;100400.56;5025724;28;20048;-73
2021/11/30 11:24:12;;;;;;;10.88;8.10;;;;;;;7.15;100.00;100402.47;5029296;28;20330;-73
2021/11/30 11:26:42;;;;;;;10.68;7.30;;;;;;;7.19;100.00;100397.84;5030200;28;20075;-73